Time;durP1;ratioP1;P1;durP2;ratioP2;P2;SDS_P1;SDS_P2;PMS_P1;PMS_P2;Temp;Humidity;BMP_temperature;BMP_pressure;BME280_temperature;BME280_humidity;BME280_pressure;Samples;Min_cycle;Max_cycle;Signal;HPM_P1;HPM_P2
2021/12/06 00:01:31;;;;;;;31.27;16.85;;;205.50;2252.80;;;;;;5053032;28;20049;-79
2021/12/06 00:04:19;;;;;;;27.30;16.35;;;205.60;2252.80;;;;;;5051100;28;20017;-76
2021/12/06 00:06:51;;;;;;;31.90;17.63;;;205.60;2252.80;;;;;;5049247;28;20029;-82
2021/12/06 00:09:20;;;;;;;29.33;16.65;;;205.60;2252.80;;;;;;5050671;28;20100;-76
2021/12/06 00:11:46;;;;;;;37.83;19.73;;;205.60;2252.80;;;;;;5053034;28;20021;-85
2021/12/06 00:14:12;;;;;;;35.08;18.65;;;205.60;2252.80;;;;;;5053213;28;20449;-75
2021/12/06 00:16:38;;;;;;;;;;;205.60;2252.80;;;;;;5042847;28;20083;-79
2021/12/06 00:19:06;;;;;;;33.35;17.13;;;205.70;2252.80;;;;;;5052958;28;19912;-74
2021/12/06 00:21:32;;;;;;;34.90;18.80;;;205.60;2252.80;;;;;;5040574;28;20036;-85
2021/12/06 00:23:58;;;;;;;38.15;19.95;;;205.50;2252.80;;;;;;5052803;28;20017;-85
2021/12/06 00:26:24;;;;;;;;;;;205.50;2252.80;;;;;;5052895;28;20385;-81
2021/12/06 00:28:56;;;;;;;36.10;18.33;;;205.50;2252.80;;;;;;5043084;28;19916;-84
2021/12/06 00:31:23;;;;;;;32.30;18.38;;;205.50;2252.80;;;;;;5050813;28;20024;-81
2021/12/06 00:33:56;;;;;;;34.63;18.67;;;205.50;2252.80;;;;;;5052541;28;20009;-83
2021/12/06 00:36:27;;;;;;;32.58;17.02;;;205.50;2252.80;;;;;;5050907;28;20029;-76
2021/12/06 00:38:55;;;;;;;31.92;17.50;;;205.60;2252.80;;;;;;5052504;28;20017;-80
2021/12/06 00:41:21;;;;;;;31.40;17.10;;;205.50;2252.80;;;;;;5052621;28;20029;-84
2021/12/06 00:43:46;;;;;;;;;;;205.50;2252.80;;;;;;5053408;28;20431;-76
2021/12/06 00:46:12;;;;;;;29.83;17.50;;;205.40;2252.80;;;;;;5052494;28;19911;-83
2021/12/06 00:48:38;;;;;;;;;;;205.20;2252.80;;;;;;5053293;28;20048;-77
2021/12/06 00:51:04;;;;;;;33.97;18.90;;;205.20;2252.80;;;;;;5052502;28;19905;-81
2021/12/06 00:53:30;;;;;;;34.28;17.27;;;205.30;2252.80;;;;;;5052715;28;20049;-84
2021/12/06 00:55:56;;;;;;;;;;;204.90;2252.80;;;;;;5052571;28;20020;-77
2021/12/06 00:58:22;;;;;;;29.40;16.35;;;180.10;2252.80;;;;;;5052665;28;19909;-82
2021/12/06 01:00:49;;;;;;;;;;;204.80;2252.80;;;;;;5044741;28;20037;-85
2021/12/06 01:03:22;;;;;;;24.98;12.85;;;205.10;2252.80;;;;;;5059669;28;19938;-78
2021/12/06 01:05:48;;;;;;;29.25;15.93;;;205.10;2252.80;;;;;;5044322;28;20033;-82
2021/12/06 01:08:15;;;;;;;27.65;14.82;;;205.00;2252.80;;;;;;5052367;28;20021;-79
2021/12/06 01:10:42;;;;;;;25.85;14.68;;;205.20;2252.80;;;;;;5052400;28;20025;-84
2021/12/06 01:13:08;;;;;;;25.63;14.27;;;205.20;2252.80;;;;;;5052431;28;20013;-82
2021/12/06 01:15:34;;;;;;;;;;;205.30;2252.80;;;;;;5052652;28;20032;-82
2021/12/06 01:18:01;;;;;;;21.57;10.87;;;205.30;2252.80;;;;;;5052204;28;19936;-85
2021/12/06 01:20:31;;;;;;;23.58;12.80;;;205.20;2252.80;;;;;;5052582;28;20246;-85
2021/12/06 01:23:07;;;;;;;24.63;12.75;;;205.20;2252.80;;;;;;5042972;28;20025;-84
2021/12/06 01:33:39;;;;;;;22.55;13.10;;;205.10;2252.80;;;;;;5052266;28;20083;-84
2021/12/06 01:41:37;;;;;;;28.33;14.20;;;204.80;2252.80;;;;;;5055452;28;20150;-85
2021/12/06 01:44:04;;;;;;;28.98;15.07;;;204.80;2252.80;;;;;;5056181;28;20104;-85
2021/12/06 01:46:32;;;;;;;26.45;15.98;;;180.10;2252.80;;;;;;5056036;28;20469;-76
2021/12/06 01:48:58;;;;;;;26.65;15.45;;;180.00;2252.80;;;;;;5055826;28;20025;-75
2021/12/06 01:51:24;;;;;;;28.05;15.15;;;180.00;2252.80;;;;;;5056535;28;20031;-82
2021/12/06 01:53:50;;;;;;;28.63;15.45;;;180.10;2252.80;;;;;;5044906;28;20029;-75
2021/12/06 01:56:16;;;;;;;;;;;180.10;2252.80;;;;;;5046152;28;20507;-84
2021/12/06 01:58:45;;;;;;;36.67;17.33;;;180.00;2252.80;;;;;;5046027;28;20280;-81
2021/12/06 02:01:11;;;;;;;31.38;16.40;;;179.90;2252.80;;;;;;5056094;28;20048;-75
2021/12/06 02:03:37;;;;;;;;;;;179.90;2252.80;;;;;;5056071;28;20076;-83
2021/12/06 02:06:03;;;;;;;33.90;17.65;;;179.80;2252.80;;;;;;5055949;28;19919;-84
2021/12/06 02:08:29;;;;;;;40.92;19.88;;;179.80;2252.80;;;;;;5044125;28;20017;-84
2021/12/06 02:11:00;;;;;;;;;;;179.90;2252.80;;;;;;5055844;28;20067;-78
2021/12/06 02:13:30;;;;;;;49.08;23.30;;;179.90;2252.80;;;;;;5053577;28;19911;-76
2021/12/06 02:15:56;;;;;;;54.22;25.90;;;179.80;2252.80;;;;;;5062352;28;20464;-79
2021/12/06 02:18:47;;;;;;;62.47;29.40;;;179.80;2252.80;;;;;;5055713;28;20025;-81
2021/12/06 02:21:14;;;;;;;57.33;28.73;;;179.70;2252.80;;;;;;5055284;28;20028;-84
2021/12/06 02:23:40;;;;;;;75.38;34.03;;;179.70;2252.80;;;;;;5055116;28;20029;-84
2021/12/06 02:26:06;;;;;;;71.60;35.15;;;179.80;2252.80;;;;;;5055281;28;20017;-76
2021/12/06 02:28:32;;;;;;;;;;;179.80;2252.80;;;;;;5055478;28;20037;-85
2021/12/06 02:30:58;;;;;;;74.82;35.65;;;179.90;2252.80;;;;;;5062279;28;19909;-83
2021/12/06 02:33:24;;;;;;;;;;;180.00;2252.80;;;;;;5040302;28;20029;-85
2021/12/06 02:35:52;;;;;;;68.80;35.00;;;180.00;2252.80;;;;;;5061241;28;20019;-84
2021/12/06 02:38:18;;;;;;;66.53;35.67;;;180.00;2252.80;;;;;;5045365;28;20040;-84
2021/12/06 02:40:45;;;;;;;65.63;34.95;;;180.00;2252.80;;;;;;5054753;28;20025;-84
2021/12/06 02:43:12;;;;;;;;;;;180.10;2252.80;;;;;;5045456;28;20440;-84
2021/12/06 02:45:39;;;;;;;70.95;33.90;;;180.00;2252.80;;;;;;5054733;28;19913;-83
2021/12/06 02:48:07;;;;;;;72.88;34.53;;;180.10;2252.80;;;;;;5054969;28;20079;-84
2021/12/06 02:50:39;;;;;;;66.43;33.45;;;180.10;2252.80;;;;;;5054404;28;20060;-85
2021/12/06 02:53:05;;;;;;;69.22;33.33;;;180.00;2252.80;;;;;;5054687;28;20058;-78
2021/12/06 02:55:35;;;;;;;66.03;31.85;;;180.00;2252.80;;;;;;5043362;28;20074;-84
2021/12/06 02:58:22;;;;;;;71.43;33.50;;;180.10;2252.80;;;;;;5054681;28;20078;-81
2021/12/06 03:00:51;;;;;;;;;;;180.10;2252.80;;;;;;5042835;28;20044;-84
2021/12/06 03:03:18;;;;;;;58.05;30.48;;;180.00;2252.80;;;;;;5054569;28;19911;-78
2021/12/06 03:05:44;;;;;;;68.93;31.95;;;180.00;2252.80;;;;;;5054416;28;20010;-84
2021/12/06 03:08:10;;;;;;;68.50;32.83;;;180.00;2252.80;;;;;;5054171;28;20376;-84
2021/12/06 03:10:38;;;;;;;;;;;180.00;2252.80;;;;;;5054578;28;20021;-78
2021/12/06 03:13:04;;;;;;;57.63;28.77;;;180.00;2252.80;;;;;;5054258;28;19905;-85
2021/12/06 03:15:30;;;;;;;62.92;30.55;;;179.90;2252.80;;;;;;5054317;28;20092;-85
2021/12/06 03:17:56;;;;;;;;;;;179.90;2252.80;;;;;;5054716;28;20108;-78
2021/12/06 03:20:22;;;;;;;69.53;28.95;;;179.90;2252.80;;;;;;5054060;28;20317;-81
2021/12/06 03:22:48;;;;;;;63.20;30.10;;;179.90;2252.80;;;;;;5055000;28;20017;-84
2021/12/06 03:25:15;;;;;;;;;;;179.90;2252.80;;;;;;5054429;28;20100;-85
2021/12/06 03:27:40;;;;;;;53.55;26.88;;;179.90;2252.80;;;;;;5054266;28;19920;-84
2021/12/06 03:30:08;;;;;;;;;;;179.90;2252.80;;;;;;5054259;28;20033;-84
2021/12/06 03:32:33;;;;;;;;;;;179.90;2252.80;;;;;;5054398;28;19911;-85
2021/12/06 03:34:59;;;;;;;41.33;21.85;;;179.90;2252.80;;;;;;5053941;28;19904;-82
2021/12/06 03:37:25;;;;;;;;;;;179.90;2252.80;;;;;;5054468;28;20067;-79
2021/12/06 03:39:50;;;;;;;45.40;22.23;;;179.90;2252.80;;;;;;5053846;28;20319;-82
2021/12/06 03:42:17;;;;;;;;;;;179.80;2252.80;;;;;;5054221;28;20025;-80
2021/12/06 03:44:43;;;;;;;44.38;21.35;;;179.70;2252.80;;;;;;5053526;28;19909;-75
2021/12/06 03:47:13;;;;;;;44.90;21.23;;;179.70;2252.80;;;;;;5053650;28;20496;-78
2021/12/06 03:49:42;;;;;;;41.25;21.20;;;179.70;2252.80;;;;;;5053703;28;20051;-81
2021/12/06 03:52:08;;;;;;;43.13;21.98;;;179.70;2252.80;;;;;;5050733;28;20087;-81
2021/12/06 03:54:35;;;;;;;42.28;21.13;;;179.70;2252.80;;;;;;5053388;28;20025;-83
2021/12/06 03:57:02;;;;;;;42.17;21.23;;;179.80;2252.80;;;;;;5053123;28;20477;-75
2021/12/06 03:59:28;;;;;;;42.05;20.20;;;179.80;2252.80;;;;;;5053079;28;20032;-82
2021/12/06 04:01:54;;;;;;;45.55;20.77;;;179.90;2252.80;;;;;;5052365;28;20033;-76
2021/12/06 04:04:20;;;;;;;;;;;179.70;2252.80;;;;;;5044218;28;20031;-75
2021/12/06 04:06:46;;;;;;;38.40;18.15;;;179.70;2252.80;;;;;;5043605;28;20027;-76
2021/12/06 04:09:12;;;;;;;;;;;179.60;2252.80;;;;;;5053384;28;20017;-81
2021/12/06 04:11:39;;;;;;;41.50;18.55;;;179.50;2252.80;;;;;;5052983;28;19958;-81
2021/12/06 04:14:06;;;;;;;42.67;19.13;;;179.70;2252.80;;;;;;5052751;28;20020;-82
2021/12/06 04:16:32;;;;;;;37.05;18.45;;;179.50;2252.80;;;;;;5052988;28;20075;-81
2021/12/06 04:18:57;;;;;;;;;;;179.50;2252.80;;;;;;5060252;28;20094;-82
2021/12/06 04:21:25;;;;;;;40.83;20.65;;;179.50;2252.80;;;;;;5052968;28;20364;-80
2021/12/06 04:23:51;;;;;;;46.50;21.33;;;179.40;2252.80;;;;;;5052672;28;20054;-82
2021/12/06 04:26:18;;;;;;;48.85;21.67;;;179.60;2252.80;;;;;;5052891;28;20164;-81
2021/12/06 04:28:48;;;;;;;44.55;20.83;;;179.50;2252.80;;;;;;5052801;28;20037;-81
2021/12/06 04:31:16;;;;;;;49.72;22.13;;;179.50;2252.80;;;;;;5052570;28;20010;-76
2021/12/06 04:33:42;;;;;;;51.47;21.05;;;179.60;2252.80;;;;;;5052867;28;20056;-76
2021/12/06 04:36:08;;;;;;;49.30;21.48;;;179.50;2252.80;;;;;;5052259;28;20524;-81
2021/12/06 04:38:34;;;;;;;52.97;21.92;;;179.50;2252.80;;;;;;5052716;28;20036;-86
2021/12/06 04:41:00;;;;;;;;;;;179.60;2252.80;;;;;;5052980;28;20155;-77
2021/12/06 04:43:25;;;;;;;49.70;21.83;;;179.70;2252.80;;;;;;5052638;28;19974;-82
2021/12/06 04:45:51;;;;;;;;;;;179.70;2252.80;;;;;;5057795;28;20054;-76
2021/12/06 04:48:17;;;;;;;62.55;21.80;;;179.70;2252.80;;;;;;5052678;28;19911;-85
2021/12/06 04:50:42;;;;;;;;;;;179.60;2252.80;;;;;;5052768;28;20465;-84
2021/12/06 04:53:20;;;;;;;48.67;19.98;;;179.60;2252.80;;;;;;5052170;28;20275;-85
2021/12/06 04:55:58;;;;;;;55.08;22.33;;;179.60;2252.80;;;;;;5052734;28;20059;-83
2021/12/06 04:58:28;;;;;;;40.38;18.10;;;179.70;2252.80;;;;;;5042601;28;20477;-84
2021/12/06 05:01:01;;;;;;;47.78;20.30;;;179.40;2252.80;;;;;;5050472;28;20499;-85
2021/12/06 05:03:27;;;;;;;45.55;18.52;;;179.50;2252.80;;;;;;5052429;28;20458;-84
2021/12/06 05:06:01;;;;;;;46.53;20.95;;;179.60;2252.80;;;;;;5052232;28;20021;-85
2021/12/06 05:08:32;;;;;;;45.53;19.45;;;179.40;2252.80;;;;;;5059912;28;20091;-84
2021/12/06 05:11:00;;;;;;;36.70;17.20;;;179.40;2252.80;;;;;;5052248;28;20469;-84
2021/12/06 05:13:27;;;;;;;44.20;18.80;;;179.40;2252.80;;;;;;5061493;28;20112;-76
2021/12/06 05:15:53;;;;;;;40.55;19.33;;;179.80;2252.80;;;;;;5063617;28;20091;-76
2021/12/06 05:18:19;;;;;;;33.10;16.33;;;179.60;2252.80;;;;;;5046630;28;20564;-83
2021/12/06 05:20:45;;;;;;;;;;;179.50;2252.80;;;;;;5056964;28;20031;-79
2021/12/06 05:23:11;;;;;;;30.75;14.73;;;179.50;2252.80;;;;;;5053810;28;19904;-83
2021/12/06 05:25:38;;;;;;;35.33;16.17;;;179.50;2252.80;;;;;;5056390;28;20431;-80
2021/12/06 05:28:05;;;;;;;32.35;15.30;;;179.50;2252.80;;;;;;5048354;28;20366;-83
2021/12/06 05:30:32;;;;;;;32.65;15.55;;;179.40;2252.80;;;;;;5049587;28;20029;-84
2021/12/06 05:33:00;;;;;;;29.67;15.27;;;179.50;2252.80;;;;;;5046758;28;20025;-84
2021/12/06 05:35:26;;;;;;;28.60;14.27;;;179.50;2252.80;;;;;;5055837;28;20021;-76
2021/12/06 05:37:54;;;;;;;35.08;18.15;;;179.50;2252.80;;;;;;5055820;28;20033;-85
2021/12/06 05:40:28;;;;;;;26.98;14.07;;;179.40;2252.80;;;;;;5055840;28;20009;-82
2021/12/06 05:42:54;;;;;;;29.67;15.68;;;179.30;2252.80;;;;;;5053575;28;20017;-84
2021/12/06 05:45:22;;;;;;;33.47;15.93;;;179.30;2252.80;;;;;;5055704;28;20035;-82
2021/12/06 05:47:48;;;;;;;35.20;16.50;;;179.20;2252.80;;;;;;5055511;28;20021;-77
2021/12/06 05:50:14;;;;;;;;;;;154.50;2252.80;;;;;;5049424;28;20104;-86
2021/12/06 05:52:40;;;;;;;28.73;13.90;;;154.50;2252.80;;;;;;5054826;28;19905;-85
2021/12/06 05:55:06;;;;;;;;;;;154.50;2252.80;;;;;;5055426;28;20304;-86
2021/12/06 05:57:32;;;;;;;31.05;15.95;;;154.50;2252.80;;;;;;5056440;28;20015;-82
2021/12/06 05:59:58;;;;;;;;;;;154.40;2252.80;;;;;;5055636;28;20120;-75
2021/12/06 06:02:24;;;;;;;36.53;16.63;;;154.40;2252.80;;;;;;5054850;28;19908;-74
2021/12/06 06:04:50;;;;;;;36.97;18.00;;;154.50;2252.80;;;;;;5054723;28;20086;-73
2021/12/06 06:07:16;;;;;;;;;;;154.50;2252.80;;;;;;5055169;28;20485;-76
2021/12/06 06:09:42;;;;;;;39.55;17.70;;;154.40;2252.80;;;;;;5054695;28;19938;-73
2021/12/06 06:12:08;;;;;;;;;;;154.50;2252.80;;;;;;5054809;28;20082;-74
2021/12/06 06:14:34;;;;;;;45.45;20.60;;;154.40;2252.80;;;;;;5042439;28;19936;-74
2021/12/06 06:17:08;;;;;;;;;;;154.40;2252.80;;;;;;5054807;28;20024;-75
2021/12/06 06:19:36;;;;;;;47.95;21.23;;;154.40;2252.80;;;;;;5051950;28;20405;-75
2021/12/06 06:22:02;;;;;;;63.50;30.48;;;154.30;2252.80;;;;;;5054475;28;20017;-73
2021/12/06 06:24:27;;;;;;;;;;;154.40;2252.80;;;;;;5054091;28;20333;-74
2021/12/06 06:26:53;;;;;;;51.53;22.63;;;179.20;2252.80;;;;;;5054412;28;20382;-83
2021/12/06 06:29:19;;;;;;;;;;;154.50;2252.80;;;;;;5054351;28;20033;-81
2021/12/06 06:31:45;;;;;;;45.92;23.52;;;179.20;2252.80;;;;;;5054097;28;19912;-76
2021/12/06 06:34:11;;;;;;;;;;;154.50;2252.80;;;;;;5041832;28;20033;-74
2021/12/06 06:36:37;;;;;;;40.08;21.05;;;154.50;2252.80;;;;;;5054430;28;19951;-74
2021/12/06 06:39:07;;;;;;;;;;;179.20;2252.80;;;;;;5054446;28;20432;-73
2021/12/06 06:41:35;;;;;;;37.00;19.42;;;154.50;2252.80;;;;;;5054165;28;20331;-74
2021/12/06 06:44:01;;;;;;;34.28;16.75;;;179.20;2252.80;;;;;;5061120;28;20032;-73
2021/12/06 06:46:27;;;;;;;;;;;154.50;2252.80;;;;;;5054194;28;20020;-74
2021/12/06 06:48:53;;;;;;;29.38;16.50;;;154.50;2252.80;;;;;;5053578;28;19927;-73
2021/12/06 06:51:19;;;;;;;34.45;18.33;;;154.40;2252.80;;;;;;5038743;28;20404;-73
2021/12/06 06:53:45;;;;;;;;;;;154.40;2252.80;;;;;;5054105;28;20013;-73
2021/12/06 06:56:11;;;;;;;28.42;15.05;;;154.50;2252.80;;;;;;5053226;28;19908;-74
2021/12/06 06:58:37;;;;;;;33.83;18.83;;;154.50;2252.80;;;;;;5053313;28;20037;-73
2021/12/06 07:01:03;;;;;;;;;;;179.20;2252.80;;;;;;5053480;28;20396;-74
2021/12/06 07:03:31;;;;;;;34.53;16.23;;;179.30;2252.80;;;;;;5053366;28;19936;-75
2021/12/06 07:06:01;;;;;;;42.78;22.63;;;179.30;2252.80;;;;;;5051003;28;20262;-73
2021/12/06 07:08:28;;;;;;;35.25;19.40;;;179.40;2252.80;;;;;;5053636;28;20021;-75
2021/12/06 07:10:54;;;;;;;33.05;18.10;;;179.30;2252.80;;;;;;5060379;28;20021;-76
2021/12/06 07:13:22;;;;;;;35.55;18.38;;;179.40;2252.80;;;;;;5053044;28;20032;-75
2021/12/06 07:15:49;;;;;;;36.78;19.50;;;179.30;2252.80;;;;;;5056559;28;20071;-81
2021/12/06 07:18:16;;;;;;;35.35;18.15;;;179.40;2252.80;;;;;;5052056;28;20067;-79
2021/12/06 07:20:42;;;;;;;37.00;19.58;;;179.40;2252.80;;;;;;5052385;28;20020;-76
2021/12/06 07:23:08;;;;;;;;;;;179.40;2252.80;;;;;;5049053;28;20362;-76
2021/12/06 07:25:34;;;;;;;35.05;17.48;;;179.40;2252.80;;;;;;5057376;28;19908;-76
2021/12/06 07:28:03;;;;;;;29.65;16.95;;;179.30;2252.80;;;;;;5055845;28;20021;-75
2021/12/06 07:30:29;;;;;;;36.63;19.20;;;179.40;2252.80;;;;;;5050918;28;20033;-74
2021/12/06 07:32:55;;;;;;;;;;;179.30;2252.80;;;;;;5052261;28;20029;-74
2021/12/06 07:35:22;;;;;;;40.78;19.85;;;179.20;2252.80;;;;;;5036166;28;19913;-75
2021/12/06 07:37:49;;;;;;;37.10;19.45;;;154.50;2252.80;;;;;;5050819;28;20053;-75
2021/12/06 07:40:16;;;;;;;45.47;23.92;;;154.30;2252.80;;;;;;5054251;28;20029;-76
2021/12/06 07:42:42;;;;;;;37.08;20.27;;;154.30;2252.80;;;;;;5048297;28;20025;-76
2021/12/06 07:45:09;;;;;;;;;;;154.40;2252.80;;;;;;5054509;28;20104;-75
2021/12/06 07:47:37;;;;;;;31.17;16.65;;;154.50;2252.80;;;;;;5051727;28;20199;-75
2021/12/06 07:50:05;;;;;;;34.70;19.30;;;179.20;2252.80;;;;;;5052313;28;20048;-76
2021/12/06 07:52:31;;;;;;;27.92;14.57;;;179.30;2252.80;;;;;;5052339;28;20032;-77
2021/12/06 07:54:59;;;;;;;;;;;154.50;2252.80;;;;;;5053323;28;20025;-77
2021/12/06 07:57:28;;;;;;;29.08;17.23;;;179.20;2252.80;;;;;;5048779;28;19916;-74
2021/12/06 07:59:54;;;;;;;37.17;19.40;;;179.20;2252.80;;;;;;5051885;28;20041;-75
2021/12/06 08:02:20;;;;;;;30.65;20.15;;;179.30;2252.80;;;;;;5051440;28;20033;-76
2021/12/06 08:04:58;;;;;;;;;;;179.30;2252.80;;;;;;5052423;28;20029;-76
2021/12/06 08:07:24;;;;;;;33.67;19.25;;;179.30;2252.80;;;;;;5051229;28;19908;-77
2021/12/06 08:09:50;;;;;;;;;;;179.40;2252.80;;;;;;5043555;28;20105;-75
2021/12/06 08:12:16;;;;;;;48.75;27.83;;;179.50;2252.80;;;;;;5051727;28;19913;-76
2021/12/06 08:14:41;;;;;;;;;;;179.60;2252.80;;;;;;5052554;28;20013;-76
2021/12/06 08:17:07;;;;;;;30.35;17.55;;;179.40;2252.80;;;;;;5050471;28;19920;-76
2021/12/06 08:19:33;;;;;;;;;;;179.40;2252.80;;;;;;5056883;28;20027;-76
2021/12/06 08:21:58;;;;;;;29.27;15.82;;;179.30;2252.80;;;;;;5051722;28;19963;-76
2021/12/06 08:24:24;;;;;;;;;;;179.20;2252.80;;;;;;5052219;28;20021;-76
2021/12/06 08:26:50;;;;;;;32.70;18.77;;;179.20;2252.80;;;;;;5051814;28;20352;-73
2021/12/06 08:29:16;;;;;;;;;;;154.50;2252.80;;;;;;5051073;28;20033;-74
2021/12/06 08:31:44;;;;;;;26.55;15.05;;;154.50;2252.80;;;;;;5051642;28;19981;-73
2021/12/06 08:34:10;;;;;;;26.70;14.10;;;154.50;2252.80;;;;;;5037099;28;20037;-73
2021/12/06 08:36:36;;;;;;;;;;;154.40;2252.80;;;;;;5054522;28;20021;-76
2021/12/06 08:39:04;;;;;;;24.15;13.70;;;154.40;2252.80;;;;;;5051524;28;19912;-75
2021/12/06 08:41:30;;;;;;;23.33;13.48;;;154.40;2252.80;;;;;;5040067;28;20468;-76
2021/12/06 08:43:57;;;;;;;26.55;15.27;;;154.40;2252.80;;;;;;5072210;28;20490;-74
2021/12/06 08:46:28;;;;;;;26.65;14.55;;;154.50;2252.80;;;;;;5072082;28;20052;-76
2021/12/06 08:48:55;;;;;;;28.88;14.90;;;154.50;2252.80;;;;;;5072110;28;20051;-73
2021/12/06 08:51:22;;;;;;;25.25;13.30;;;179.20;2252.80;;;;;;5057279;28;20066;-73
2021/12/06 08:53:49;;;;;;;29.58;15.68;;;154.50;2252.80;;;;;;5051661;28;20025;-75
2021/12/06 08:56:16;;;;;;;29.73;15.13;;;154.50;2252.80;;;;;;5051413;28;20025;-75
2021/12/06 08:58:42;;;;;;;;;;;154.40;2252.80;;;;;;5052383;28;20067;-76
2021/12/06 09:01:09;;;;;;;28.35;14.70;;;154.50;2252.80;;;;;;5051644;28;20364;-73
2021/12/06 09:03:36;;;;;;;26.95;15.27;;;154.40;2252.80;;;;;;5050896;28;20040;-74
2021/12/06 09:06:06;;;;;;;23.20;13.55;;;154.50;2252.80;;;;;;5051235;28;20031;-75
2021/12/06 09:08:33;;;;;;;26.55;14.55;;;154.40;2252.80;;;;;;5042941;28;20074;-76
2021/12/06 09:11:00;;;;;;;28.83;15.05;;;154.50;2252.80;;;;;;5051183;28;20546;-76
2021/12/06 09:13:28;;;;;;;26.95;13.85;;;154.20;2252.80;;;;;;5050619;28;20063;-73
2021/12/06 09:15:59;;;;;;;26.45;14.32;;;154.40;2252.80;;;;;;5034223;28;20388;-76
2021/12/06 09:18:25;;;;;;;45.03;21.88;;;154.50;2252.80;;;;;;5048245;28;20396;-75
2021/12/06 09:20:54;;;;;;;25.63;15.07;;;179.20;2252.80;;;;;;5050625;28;20440;-77
2021/12/06 09:23:20;;;;;;;24.33;14.05;;;179.30;2252.80;;;;;;5042239;28;20029;-76
2021/12/06 09:25:47;;;;;;;;;;;179.30;2252.80;;;;;;5051523;28;20095;-76
2021/12/06 09:28:15;;;;;;;27.67;14.57;;;179.30;2252.80;;;;;;5051053;28;19978;-74
2021/12/06 09:30:41;;;;;;;30.92;15.55;;;179.20;2252.80;;;;;;5051095;28;20107;-76
2021/12/06 09:33:08;;;;;;;;;;;154.50;2252.80;;;;;;5052294;28;20067;-76
2021/12/06 09:35:36;;;;;;;29.83;13.77;;;154.50;2252.80;;;;;;5051966;28;19911;-77
2021/12/06 09:38:04;;;;;;;36.47;16.92;;;154.40;2252.80;;;;;;5052131;28;20119;-77
2021/12/06 09:40:31;;;;;;;32.90;17.77;;;154.30;2252.80;;;;;;5051893;28;20025;-79
2021/12/06 09:42:59;;;;;;;31.75;17.73;;;154.30;2252.80;;;;;;5051806;28;20029;-77
2021/12/06 09:45:28;;;;;;;30.88;17.30;;;154.40;2252.80;;;;;;5051439;28;20024;-78
2021/12/06 09:47:54;;;;;;;31.63;17.15;;;154.20;2252.80;;;;;;5058732;28;20059;-76
2021/12/06 09:50:27;;;;;;;36.92;22.27;;;154.30;2252.80;;;;;;5051927;28;20025;-74
2021/12/06 09:52:57;;;;;;;52.83;29.10;;;154.40;2252.80;;;;;;5034449;28;20152;-80
2021/12/06 09:55:25;;;;;;;48.03;26.35;;;154.40;2252.80;;;;;;5052463;28;20025;-78
2021/12/06 09:57:52;;;;;;;55.42;29.98;;;154.50;2252.80;;;;;;5051913;28;20111;-77
2021/12/06 10:00:22;;;;;;;34.40;19.55;;;179.20;2252.80;;;;;;5053099;28;20048;-74
2021/12/06 10:02:48;;;;;;;32.00;17.90;;;154.50;2252.80;;;;;;5055345;28;20025;-74
2021/12/06 10:05:13;;;;;;;;;;;154.40;2252.80;;;;;;5055792;28;20025;-83
2021/12/06 10:07:39;;;;;;;47.88;27.58;;;154.30;2252.80;;;;;;5054167;28;20005;-74
2021/12/06 10:10:10;;;;;;;;;;;154.30;2252.80;;;;;;5046184;28;20372;-71
2021/12/06 10:12:37;;;;;;;45.28;25.05;;;154.40;2252.80;;;;;;5054463;28;19920;-76
2021/12/06 10:15:05;;;;;;;41.42;24.50;;;154.40;2252.80;;;;;;5054895;28;20035;-77
2021/12/06 10:17:32;;;;;;;35.63;19.63;;;154.30;2252.80;;;;;;5055027;28;20114;-75
2021/12/06 10:19:59;;;;;;;38.60;19.95;;;154.20;2252.80;;;;;;5054537;28;20045;-77
2021/12/06 10:22:26;;;;;;;35.58;20.20;;;154.20;2252.80;;;;;;5054594;28;20025;-77
2021/12/06 10:24:56;;;;;;;39.88;23.65;;;154.30;2252.80;;;;;;5054810;28;20013;-76
2021/12/06 10:27:22;;;;;;;33.38;19.25;;;154.40;2252.80;;;;;;5054177;28;20025;-78
2021/12/06 10:29:49;;;;;;;;;;;154.10;2252.80;;;;;;5054724;28;20107;-78
2021/12/06 10:32:19;;;;;;;;;;;154.10;2252.80;;;;;;5054579;28;19913;-77
2021/12/06 10:34:50;;;;;;;31.27;17.33;;;154.20;2252.80;;;;;;5054052;28;19928;-76
2021/12/06 10:37:35;;;;;;;44.00;21.70;;;154.00;2252.80;;;;;;5052158;28;20017;-75
2021/12/06 10:40:03;;;;;;;33.25;19.80;;;153.90;2252.80;;;;;;5052318;28;20025;-75
2021/12/06 10:42:34;;;;;;;34.83;18.40;;;154.10;2252.80;;;;;;5051655;28;20027;-82
2021/12/06 10:45:04;;;;;;;38.75;20.85;;;154.10;2252.80;;;;;;5051917;28;20028;-75
2021/12/06 10:47:30;;;;;;;40.60;24.48;;;154.10;2252.80;;;;;;5054184;28;20024;-79
2021/12/06 10:50:05;;;;;;;;;;;154.30;2252.80;;;;;;5052134;28;20033;-73
2021/12/06 10:52:32;;;;;;;39.58;22.70;;;154.10;2252.80;;;;;;5054145;28;19928;-75
2021/12/06 10:54:58;;;;;;;43.15;24.13;;;154.30;2252.80;;;;;;5054456;28;20025;-76
2021/12/06 10:57:44;;;;;;;;;;;154.40;2252.80;;;;;;5054453;28;20086;-76
2021/12/06 11:00:27;;;;;;;37.28;21.98;;;154.20;2252.80;;;;;;5053526;28;19916;-74
2021/12/06 11:02:53;;;;;;;33.92;19.65;;;154.30;2252.80;;;;;;5054298;28;20033;-74
2021/12/06 11:05:26;;;;;;;;;;;154.30;2252.80;;;;;;5053827;28;20044;-74
2021/12/06 11:08:09;;;;;;;31.20;17.08;;;154.40;2252.80;;;;;;5053578;28;19905;-76
2021/12/06 11:10:44;;;;;;;30.15;17.05;;;154.20;2252.80;;;;;;5053622;28;20012;-73
2021/12/06 11:13:21;;;;;;;34.03;17.55;;;154.30;2252.80;;;;;;5053444;28;20044;-77
2021/12/06 11:16:06;;;;;;;33.08;16.75;;;154.40;2252.80;;;;;;5051048;28;20048;-76
2021/12/06 11:18:46;;;;;;;31.95;16.77;;;154.10;2252.80;;;;;;5034073;28;20033;-74
2021/12/06 11:21:27;;;;;;;45.83;24.85;;;154.10;2252.80;;;;;;5034045;28;20481;-74
2021/12/06 11:23:59;;;;;;;58.05;31.20;;;154.10;2252.80;;;;;;5034474;28;20026;-74
2021/12/06 11:26:25;;;;;;;40.83;21.77;;;154.20;2252.80;;;;;;5034109;28;20021;-73
2021/12/06 11:28:51;;;;;;;48.15;25.45;;;153.60;2252.80;;;;;;5033783;28;20101;-82
2021/12/06 11:31:18;;;;;;;38.40;21.33;;;153.90;2252.80;;;;;;5024078;28;20079;-77
2021/12/06 11:33:58;;;;;;;46.67;22.83;;;154.10;2252.80;;;;;;5053926;28;20071;-78
2021/12/06 11:36:25;;;;;;;52.13;25.63;;;154.10;2252.80;;;;;;5053898;28;20426;-75
2021/12/06 11:39:08;;;;;;;40.10;21.08;;;154.40;2252.80;;;;;;5036078;28;20033;-79
2021/12/06 11:41:34;;;;;;;40.25;21.88;;;154.40;2252.80;;;;;;5036125;28;20027;-74
2021/12/06 11:44:14;;;;;;;;;;;154.10;2252.80;;;;;;5054614;28;20033;-78
2021/12/06 11:46:40;;;;;;;42.08;23.42;;;154.20;2252.80;;;;;;5054110;28;19905;-76
2021/12/06 11:49:16;;;;;;;;;;;154.30;2252.80;;;;;;5054597;28;20032;-79
2021/12/06 11:51:42;;;;;;;43.17;24.30;;;154.40;2252.80;;;;;;5054040;28;19912;-73
2021/12/06 11:54:08;;;;;;;;;;;154.50;2252.80;;;;;;5054259;28;20029;-75
2021/12/06 11:56:42;;;;;;;38.80;21.38;;;154.50;2252.80;;;;;;5049912;28;19934;-80
2021/12/06 11:59:08;;;;;;;41.53;20.33;;;154.50;2252.80;;;;;;5042265;28;20026;-77
2021/12/06 12:01:37;;;;;;;41.05;20.30;;;154.00;2252.80;;;;;;5046335;28;20488;-77
2021/12/06 12:04:12;;;;;;;40.85;22.15;;;154.20;2252.80;;;;;;5053404;28;20113;-76
2021/12/06 12:06:41;;;;;;;53.45;28.02;;;154.10;2252.80;;;;;;5052691;28;20074;-74
2021/12/06 12:09:18;;;;;;;54.05;26.55;;;154.50;2252.80;;;;;;5053430;28;20024;-78
2021/12/06 12:12:11;;;;;;;65.47;33.05;;;179.20;2252.80;;;;;;5051567;28;20021;-79
2021/12/06 12:14:37;;;;;;;37.33;20.25;;;154.50;2252.80;;;;;;5050213;28;20017;-79
2021/12/06 12:17:04;;;;;;;;;;;154.50;2252.80;;;;;;5053267;28;20013;-79
2021/12/06 12:19:30;;;;;;;;;;;154.40;2252.80;;;;;;5052937;28;19909;-79
2021/12/06 12:21:56;;;;;;;44.28;22.33;;;154.50;2252.80;;;;;;5052419;28;19908;-76
2021/12/06 12:24:21;;;;;;;;;;;179.20;2252.80;;;;;;5052991;28;20052;-79
2021/12/06 12:27:02;;;;;;;44.58;22.88;;;154.40;2252.80;;;;;;5052733;28;19946;-73
2021/12/06 12:29:28;;;;;;;56.08;26.48;;;154.40;2252.80;;;;;;5040800;28;20043;-78
2021/12/06 12:31:59;;;;;;;;;;;154.40;2252.80;;;;;;5051773;28;20037;-78
2021/12/06 12:34:27;;;;;;;38.70;20.70;;;154.40;2252.80;;;;;;5051627;28;19905;-76
2021/12/06 12:36:54;;;;;;;43.30;20.67;;;154.50;2252.80;;;;;;5033667;28;20025;-77
2021/12/06 12:39:20;;;;;;;;;;;154.50;2252.80;;;;;;5052109;28;20096;-79